• Join FlightAware (Why Join?)
  • Login
  • US Flag 
03:11AM EST


 

Airport Tracker/Info


-or-


 

Live Flight TrackerFlight Track Log ✈ JBU56 ✈ 13-Apr-2014 ✈ KIAD - KBOS

Flight Track Log - Related Links

Times and Time Zones

All times are in EDT time to prevent confusion due to time zone crossing. See the JBU56 flight status page for this flight to view local times or setup timezone preferences in your user account.

Time Position Orientation Groundspeed Altitude Reporting Facility
EDT Latitude Longitude Course Direction KTS MPH feet Rate Location/Type
08:43AM 38.9667 -77.5167 78° East 172 198 1,900  Level Potomac TRACON
08:43AM 39.0000 -77.5667 311° West 223 257 3,500 2,160 Climbing Potomac TRACON
08:44AM 39.0667 -77.5500 11° North 301 346 6,100 3,000 Climbing Potomac TRACON
08:45AM 39.1333 -77.5000 30° Northeast 307 353 9,500 1,920 Climbing Potomac TRACON
08:46AM 39.0210 -77.0013 77° East  Level FlightAware Approximate
08:46AM 39.1667 -77.3833 70° East 331 381 10,000  Level Potomac TRACON
08:47AM 39.0416 -76.8839 78° East  Level FlightAware Approximate
08:48AM 39.0630 -76.7555 78° East  Level FlightAware Approximate
08:49AM 39.1231 -77.1086 101° East 352 405 13,000  Level Washington Center
08:50AM 39.0942 -76.9781 106° East 381 438 15,300 2,280 Climbing Washington Center
08:51AM 39.1064 -76.8361 84° East 397 457 17,800 2,040 Climbing Washington Center
08:52AM 39.1178 -76.6900 84° East 403 464 19,600 1,860 Climbing Washington Center
08:53AM 39.1281 -76.5381 85° East 419 482 21,700 1,620 Climbing Washington Center
08:54AM 39.1411 -76.3833 84° East 431 496 23,000 600 Climbing Washington Center
08:55AM 39.1569 -76.1958 84° East 437 503 23,000 660 Level Washington Center
08:56AM 39.1733 -76.0411 82° East 443 510 24,400 1,380 Climbing Washington Center
08:57AM 39.2011 -75.8828 77° East 458 527 25,900 1,200 Climbing Washington Center
08:58AM 39.2847 -75.7617 48° Northeast 459 528 27,000 480 Climbing Washington Center
08:59AM 39.3742 -75.6472 45° Northeast 456 525 27,000  Level Washington Center
09:00AM 39.4628 -75.5314 45° Northeast 454 522 27,000  Level Washington Center
09:01AM 39.5683 -75.3928 45° Northeast 452 520 27,000  Level Washington Center
09:02AM 39.6569 -75.2753 46° Northeast 456 525 27,000  Level Washington Center
09:03AM 39.7425 -75.1525 48° Northeast 456 525 27,000  Level Washington Center
09:04AM 39.8364 -75.0211 47° Northeast 453 521 27,000  Level Washington Center
09:05AM 39.9272 -74.8911 48° Northeast 452 520 27,000  Level Washington Center
09:06AM 40.0044 -74.7786 48° Northeast 454 522 27,000  Level Washington Center
09:07AM 40.0892 -74.6464 50° Northeast 471 542 27,000  Level Washington Center
09:09AM 40.1947 -74.4856 49° Northeast 473 544 27,000  Level New York Center
09:10AM 40.2803 -74.3514 50° Northeast 478 550 27,000  Level New York Center
09:11AM 40.3675 -74.2142 50° Northeast 484 557 27,000  Level New York Center
09:12AM 40.4547 -74.0822 49° Northeast 484 557 27,000  Level New York Center
09:13AM 40.5419 -73.9444 50° Northeast 484 557 27,000  Level New York Center
09:14AM 40.6267 -73.8089 51° Northeast 484 557 27,000  Level New York Center
09:16AM 40.8189 -73.5089 50° Northeast 488 562 27,000 -180 Level Washington Center
09:17AM 40.9047 -73.3722 50° Northeast 484 557 26,500 -660 Descending Boston Center
09:18AM 40.9811 -73.2622 47° Northeast 481 554 25,700 -900 Descending Boston Center
09:19AM 41.0675 -73.1331 48° Northeast 474 545 24,700 -1,020 Descending Boston Center
09:20AM 41.1519 -73.0056 49° Northeast 466 536 23,700 -840 Descending Boston Center
09:21AM 41.2250 -72.8261 62° Northeast 462 532 23,000 -360 Descending Boston Center
09:22AM 41.2811 -72.6706 64° Northeast 463 533 23,000  Level Boston Center
09:23AM 41.3367 -72.5150 65° Northeast 463 533 23,000  Level Boston Center
09:24AM 41.3942 -72.3586 64° Northeast 464 534 23,000  Level Boston Center
09:25AM 41.4503 -72.2022 64° Northeast 465 535 23,000  Level Boston Center
09:26AM 41.5061 -72.0464 64° Northeast 466 536 23,000 -1,320 Level Boston Center
09:27AM 41.5589 -71.8981 65° Northeast 466 536 20,400 -2,400 Descending Boston Center
09:28AM 41.6206 -71.7244 65° Northeast 448 516 18,200 -1,920 Descending Boston Center
09:29AM 41.6703 -71.5800 65° Northeast 438 504 16,600 -1,860 Descending Boston Center
09:30AM 41.7192 -71.4450 64° Northeast 408 470 14,500 -2,040 Descending Boston Center
09:31AM 41.7792 -71.3022 61° Northeast 410 472 12,500 -1,740 Descending Boston Center
09:32AM 41.8336 -71.1736 60° Northeast 403 464 11,000 -780 Descending Boston Center
09:33AM 41.8844 -71.0558 60° Northeast 359 413 11,000  Level Boston Center
09:34AM 41.9336 -70.9422 60° Northeast 353 406 11,000  Level Boston Center
09:35AM 41.9797 -70.8353 60° Northeast 353 406 11,000 -600 Level Boston Center
09:36AM 42.0308 -70.7300 57° Northeast 334 384 9,900 -1,320 Descending Boston Center
09:37AM 42.0908 -70.6414 48° Northeast 317 365 8,400 -1,380 Descending Boston Center
09:38AM 42.1650 -70.5986 23° Northeast 310 357 7,100 -1,200 Descending Boston Center
09:39AM 42.2450 -70.5772 11° North 296 341 6,000 -1,080 Descending Boston Center
09:40AM 42.3233 -70.5619 North 288 331 5,000 -540 Descending Boston Center
09:41AM 42.3769 -70.6211 321° Northwest 256 295 5,000  Level Boston Center
09:42AM 42.4347 -70.6975 316° Northwest 244 281 5,000  Level Boston Center
09:43AM 42.4825 -70.7608 316° Northwest 244 281 5,000  Level Boston Center
09:44AM 42.5350 -70.8094 326° Northwest 245 282 5,000 -540 Level Boston Center
09:45AM 42.5806 -70.8378 335° Northwest 250 288 4,000 -900 Descending Boston Center
09:46AM 42.5547 -70.8989 240° Southwest 180 207 3,200 -540 Descending Boston Center
09:47AM 42.5197 -70.9303 213° Southwest 153 176 3,000 -480 Descending Boston Center
09:48AM 42.4797 -70.9503 200° South 152 175 2,300 -840 Descending Boston Center
09:49AM 42.4381 -70.9692 198° South 153 176 1,400 -840 Descending Boston Center
09:50AM 42.4019 -70.9869 200° South 143 165 600 10,620 Descending Boston Center
09:51AM 42.3686 -71.0025 199° South 141 162 23,000 22,020 Climbing Boston Center